Childress Municipal Airport Childress US
ICAO: KCDS
IATA: CDS
Category: Medium
Scheduled Services: No

Elevation: 1954 ft
TransAlt. 18000 ft.

Airport Communications:
ASOS:135.125
FORT WORTH CNTR:133.5
FORT WORTH RDO:122.45
CTAF/UNICOM:122.8

KCDS Zoom In..

If you have problems with the map follow the link
https://www.worldairports.se/pages/airport.php?
ICAO=KCDS

Runways:

(A) RW 04 length 4425 ft width 60 ft
---- / hdg 41

(B) RW 18 length 5949 ft width 75 ft
---- / hdg 176

(C) RW 22 length 4425 ft width 60 ft
---- / hdg 221

(D) RW 36 length 5949 ft width 75 ft
---- / hdg 356

Location; KCDS
Day. 18 / Time. 21.53 Zulu
* Altimeter: 29.55
* Temperature: 23° c. 73.4°f.
* Wind from: 260° Speed 23 kn with Gusts up to 31 kn.
Dewpoint: -01° c.
Visibility: 10 Statute Miles.
Clouds: Clear (automated report).

KCDS 182153Z AUTO 26023G31KT 10SM CLR 23/M01 A2955 RMK AO2 PK WND 26036/2130 RAB08E25 SLP996 P0000 T02281006


Wind From 260°
Speed 23 kn.

 
 
jpsmedia.com for Web Design worldairports.se 2019   terms of use